Time;durP1;ratioP1;P1;durP2;ratioP2;P2;SDS_P1;SDS_P2;PMS_P1;PMS_P2;Temp;Humidity;BMP_temperature;BMP_pressure;BME280_temperature;BME280_humidity;BME280_pressure;Samples;Min_cycle;Max_cycle;Signal;HPM_P1;HPM_P2
2022/10/27 00:02:03;;;;;;;1.87;1.73;;;12.40;99.90;;;;;;5108950;28;20706;-82
2022/10/27 00:04:30;;;;;;;2.63;2.07;;;12.40;99.90;;;;;;5109630;28;20647;-83
2022/10/27 00:06:57;;;;;;;2.30;2.00;;;12.40;99.90;;;;;;5109773;28;20659;-82
2022/10/27 00:09:24;;;;;;;2.10;1.77;;;12.40;99.90;;;;;;5110553;28;20615;-81
2022/10/27 00:11:51;;;;;;;3.20;2.40;;;12.40;99.90;;;;;;5110702;28;20659;-81
2022/10/27 00:14:18;;;;;;;7.90;2.10;;;13.10;99.90;;;;;;5110360;28;20738;-82
2022/10/27 00:16:53;;;;;;;2.47;2.13;;;12.30;99.90;;;;;;5110310;28;21179;-81
2022/10/27 00:19:20;;;;;;;4.03;2.20;;;12.20;99.90;;;;;;5111594;28;20607;-81
2022/10/27 00:21:47;;;;;;;1.77;1.50;;;13.60;99.90;;;;;;5111294;28;20684;-82
2022/10/27 00:24:14;;;;;;;2.07;1.97;;;12.10;99.90;;;;;;5110844;28;20692;-81
2022/10/27 00:26:41;;;;;;;1.77;1.60;;;12.20;99.90;;;;;;5110895;28;20615;-82
2022/10/27 00:29:08;;;;;;;1.83;1.70;;;12.20;99.90;;;;;;5110968;28;20607;-81
2022/10/27 00:31:35;;;;;;;2.10;1.80;;;12.40;99.90;;;;;;5110497;28;21322;-84
2022/10/27 00:34:03;;;;;;;1.40;1.30;;;12.20;99.90;;;;;;5102442;28;20652;-82
2022/10/27 00:36:30;;;;;;;2.00;1.80;;;12.10;99.90;;;;;;5089756;28;20715;-82
2022/10/27 00:38:59;;;;;;;1.03;1.03;;;12.10;99.90;;;;;;5088829;28;20616;-82
2022/10/27 00:41:28;;;;;;;2.50;2.30;;;12.00;99.90;;;;;;5089045;28;20853;-82
2022/10/27 00:43:55;;;;;;;1.90;1.43;;;12.00;99.90;;;;;;5089595;28;20621;-82
2022/10/27 00:46:31;;;;;;;1.97;1.87;;;12.10;99.90;;;;;;5104711;28;21519;-82
2022/10/27 00:49:02;;;;;;;2.30;1.80;;;12.10;99.90;;;;;;5109104;28;20647;-81
2022/10/27 00:51:30;;;;;;;4.10;1.87;;;12.00;99.90;;;;;;5109675;28;20708;-83
2022/10/27 00:53:57;;;;;;;3.17;2.07;;;12.60;99.90;;;;;;5109052;28;20647;-81
2022/10/27 00:56:25;;;;;;;2.47;1.83;;;12.30;99.90;;;;;;5109298;28;21004;-81
2022/10/27 00:58:52;;;;;;;1.90;1.80;;;11.90;99.90;;;;;;5109417;28;20704;-84
2022/10/27 01:01:19;;;;;;;2.30;2.10;;;12.00;99.90;;;;;;5109284;28;20877;-84
2022/10/27 01:03:46;;;;;;;1.97;1.83;;;11.90;99.90;;;;;;5109500;28;21229;-82
2022/10/27 01:06:13;;;;;;;2.50;2.30;;;12.00;99.90;;;;;;5109790;28;20706;-83
2022/10/27 01:08:42;;;;;;;3.73;2.60;;;12.00;99.90;;;;;;5109391;28;20677;-83
2022/10/27 01:11:09;;;;;;;1.80;1.70;;;11.90;99.90;;;;;;5108663;28;21189;-83
2022/10/27 01:13:36;;;;;;;2.00;1.73;;;11.90;99.90;;;;;;5109169;28;20634;-83
2022/10/27 01:16:15;;;;;;;5.10;2.60;;;11.80;99.90;;;;;;5108835;28;20739;-82
2022/10/27 01:18:56;;;;;;;2.50;2.00;;;11.80;99.90;;;;;;5109185;28;20620;-83
2022/10/27 01:21:45;;;;;;;2.80;2.00;;;11.80;99.90;;;;;;5109485;28;21189;-83
2022/10/27 01:24:46;;;;;;;2.90;2.70;;;11.80;99.90;;;;;;5108558;28;20627;-84
2022/10/27 01:27:37;;;;;;;3.40;2.00;;;11.80;99.90;;;;;;5066479;28;21220;-83
2022/10/27 01:30:08;;;;;;;2.57;2.20;;;11.90;99.90;;;;;;5113054;28;20608;-83
2022/10/27 01:32:47;;;;;;;2.73;2.33;;;11.80;99.90;;;;;;5112129;28;20724;-83
2022/10/27 01:35:21;;;;;;;1.73;1.63;;;11.90;99.90;;;;;;5093273;28;21048;-83
2022/10/27 01:37:53;;;;;;;2.57;2.37;;;11.80;99.90;;;;;;5092322;28;20772;-83
2022/10/27 01:40:24;;;;;;;8.10;2.60;;;11.70;99.90;;;;;;5092227;28;20605;-83
2022/10/27 01:42:56;;;;;;;3.53;2.43;;;11.70;99.90;;;;;;5100564;28;20627;-83
2022/10/27 01:45:26;;;;;;;2.20;1.97;;;11.70;99.90;;;;;;5112402;28;20699;-83
2022/10/27 01:47:56;;;;;;;3.17;2.47;;;11.70;99.90;;;;;;5111919;28;20631;-83
2022/10/27 01:50:28;;;;;;;3.80;2.40;;;11.70;99.90;;;;;;5111934;28;20599;-82
2022/10/27 01:52:55;;;;;;;3.03;2.73;;;11.70;99.90;;;;;;5111641;28;20650;-83
2022/10/27 01:55:41;;;;;;;2.80;2.13;;;11.60;99.90;;;;;;5111459;28;20722;-83
2022/10/27 01:58:25;;;;;;;4.03;2.80;;;11.70;99.90;;;;;;5111756;28;20664;-84
2022/10/27 02:01:04;;;;;;;1.50;1.40;;;11.60;99.90;;;;;;5111572;28;20612;-83
2022/10/27 02:03:35;;;;;;;3.20;2.10;;;12.40;99.90;;;;;;5111406;28;20619;-83
2022/10/27 02:06:09;;;;;;;4.70;3.37;;;11.70;99.90;;;;;;5111383;28;21291;-83
2022/10/27 02:08:41;;;;;;;3.07;2.33;;;11.60;99.90;;;;;;5112101;28;20635;-84
2022/10/27 02:11:11;;;;;;;9.17;2.93;;;11.60;99.90;;;;;;5113048;28;20688;-82
2022/10/27 02:13:41;;;;;;;2.57;2.37;;;11.60;99.90;;;;;;5111633;28;20704;-82
2022/10/27 02:16:11;;;;;;;2.93;1.87;;;11.50;99.90;;;;;;5110981;28;20713;-83
2022/10/27 02:18:44;;;;;;;3.40;2.90;;;11.50;99.90;;;;;;5110950;28;20600;-83
2022/10/27 02:21:13;;;;;;;3.23;1.97;;;11.50;99.90;;;;;;5112376;28;21149;-82
2022/10/27 02:23:42;;;;;;;3.50;2.60;;;11.50;99.90;;;;;;5112223;28;20604;-82
2022/10/27 02:26:14;;;;;;;2.63;2.43;;;11.50;99.90;;;;;;5111696;28;20611;-83
2022/10/27 02:28:49;;;;;;;2.13;1.73;;;11.40;99.90;;;;;;5111938;28;20611;-84
2022/10/27 02:31:20;;;;;;;2.53;2.30;;;11.40;99.90;;;;;;5111063;28;20773;-83
2022/10/27 02:33:49;;;;;;;3.63;3.17;;;11.30;99.90;;;;;;5109879;28;20651;-83
2022/10/27 02:36:16;;;;;;;2.13;2.03;;;12.10;99.90;;;;;;5109884;28;20596;-83
2022/10/27 02:38:43;;;;;;;2.50;2.30;;;11.40;99.90;;;;;;5109300;28;20615;-83
2022/10/27 02:41:10;;;;;;;4.07;2.97;;;11.40;99.90;;;;;;5109609;28;20595;-83
2022/10/27 02:43:37;;;;;;;3.17;2.87;;;11.70;99.90;;;;;;5091242;28;20656;-83
2022/10/27 02:46:04;;;;;;;2.37;1.77;;;11.50;99.90;;;;;;5102539;28;20689;-83
2022/10/27 02:48:32;;;;;;;4.00;2.53;;;11.50;99.90;;;;;;5108709;28;20719;-83
2022/10/27 02:51:00;;;;;;;2.50;2.13;;;11.50;99.90;;;;;;5109613;28;20648;-83
2022/10/27 02:53:27;;;;;;;4.30;3.00;;;13.00;99.90;;;;;;5108879;28;21256;-83
2022/10/27 02:55:54;;;;;;;8.87;2.20;;;11.50;99.90;;;;;;5108918;28;20618;-84
2022/10/27 02:58:21;;;;;;;3.93;2.73;;;12.00;99.90;;;;;;5108639;28;20631;-83
2022/10/27 03:00:52;;;;;;;3.50;2.80;;;11.40;99.90;;;;;;5109126;28;20665;-83
2022/10/27 03:03:19;;;;;;;2.73;2.50;;;11.90;99.90;;;;;;5108746;28;20728;-83
2022/10/27 03:05:46;;;;;;;2.20;2.00;;;11.40;99.90;;;;;;5109216;28;20603;-83
2022/10/27 03:08:15;;;;;;;2.83;2.40;;;11.40;99.90;;;;;;5109393;28;20691;-84
2022/10/27 03:10:42;;;;;;;2.03;1.90;;;11.40;99.90;;;;;;5109737;28;20692;-83
2022/10/27 03:13:09;;;;;;;3.00;2.27;;;11.40;99.90;;;;;;5109814;28;21052;-83
2022/10/27 03:15:36;;;;;;;3.63;3.33;;;11.30;99.90;;;;;;5110227;28;21345;-83
2022/10/27 03:18:04;;;;;;;4.40;2.70;;;11.40;99.90;;;;;;5109304;28;20612;-83
2022/10/27 03:20:31;;;;;;;3.30;3.10;;;11.40;99.90;;;;;;5109807;28;20604;-83
2022/10/27 03:22:57;;;;;;;2.90;2.63;;;11.40;99.90;;;;;;5109417;28;20708;-83
2022/10/27 03:25:26;;;;;;;2.67;2.13;;;11.40;99.90;;;;;;5109598;28;20708;-83
2022/10/27 03:27:53;;;;;;;2.20;2.07;;;11.30;99.90;;;;;;5108941;28;20607;-83
2022/10/27 03:30:19;;;;;;;2.40;2.07;;;11.30;99.90;;;;;;5108894;28;20636;-83
2022/10/27 03:32:48;;;;;;;4.20;3.20;;;11.40;99.90;;;;;;5108507;28;20731;-83
2022/10/27 03:35:16;;;;;;;2.73;2.53;;;11.40;99.90;;;;;;5089799;28;20707;-83
2022/10/27 03:37:42;;;;;;;5.30;3.10;;;11.20;99.90;;;;;;5088107;28;20620;-83
2022/10/27 03:40:10;;;;;;;2.93;2.40;;;11.20;99.90;;;;;;5087932;28;20699;-83
2022/10/27 03:42:42;;;;;;;2.80;2.60;;;11.20;99.90;;;;;;5087973;28;21209;-83
2022/10/27 03:45:10;;;;;;;2.60;2.40;;;11.20;99.90;;;;;;5093438;28;20708;-83
2022/10/27 03:47:37;;;;;;;1.93;1.80;;;11.10;99.90;;;;;;5107921;27;20655;-83
2022/10/27 03:50:05;;;;;;;2.73;2.00;;;11.10;99.90;;;;;;5107042;28;20612;-83
2022/10/27 03:52:32;;;;;;;2.60;2.43;;;11.10;99.90;;;;;;5108222;28;20645;-83
2022/10/27 03:54:59;;;;;;;1.90;1.80;;;;;;;;;;5107456;28;20639;-82
2022/10/27 03:57:26;;;;;;;3.67;2.60;;;11.10;99.90;;;;;;5107786;28;20713;-82
2022/10/27 03:59:54;;;;;;;2.73;1.73;;;11.10;99.90;;;;;;5108307;28;20647;-83
2022/10/27 04:02:21;;;;;;;3.33;3.03;;;11.20;99.90;;;;;;5107989;28;21195;-83
2022/10/27 04:04:48;;;;;;;2.53;2.33;;;11.10;99.90;;;;;;5107005;28;23137;-82
2022/10/27 04:07:15;;;;;;;3.20;2.07;;;11.10;99.90;;;;;;5099648;28;20634;-83
2022/10/27 04:09:42;;;;;;;3.10;2.40;;;11.10;99.90;;;;;;5108448;28;20592;-83
2022/10/27 04:12:09;;;;;;;2.57;2.33;;;11.10;99.90;;;;;;5109084;28;20610;-83
2022/10/27 04:14:36;;;;;;;1.90;1.73;;;11.00;99.90;;;;;;5109092;28;20611;-83
2022/10/27 04:17:04;;;;;;;2.37;2.17;;;11.00;99.90;;;;;;5108772;28;20628;-83
2022/10/27 04:19:31;;;;;;;3.47;2.70;;;11.40;99.90;;;;;;5109221;28;20619;-83
2022/10/27 04:21:58;;;;;;;2.80;2.33;;;10.90;99.90;;;;;;5096524;28;21069;-83
2022/10/27 04:24:24;;;;;;;3.57;2.27;;;10.90;99.90;;;;;;5098067;28;20710;-83
2022/10/27 04:26:51;;;;;;;2.33;1.70;;;10.90;99.90;;;;;;5101604;28;20615;-83
2022/10/27 04:29:18;;;;;;;1.90;1.80;;;10.90;99.90;;;;;;5096843;28;20712;-83
2022/10/27 04:31:45;;;;;;;3.80;2.37;;;10.80;99.90;;;;;;5107469;28;21032;-83
2022/10/27 04:34:13;;;;;;;2.40;2.27;;;10.80;99.90;;;;;;5107844;28;20712;-83
2022/10/27 04:36:40;;;;;;;2.00;1.90;;;10.80;99.90;;;;;;5107976;28;20656;-83
2022/10/27 04:39:07;;;;;;;1.97;1.87;;;10.70;99.90;;;;;;5104308;28;20605;-84
2022/10/27 04:41:34;;;;;;;2.90;1.80;;;10.70;99.90;;;;;;5095540;28;20629;-84
2022/10/27 04:44:01;;;;;;;2.10;1.90;;;10.60;99.90;;;;;;5098012;28;21026;-84
2022/10/27 04:46:27;;;;;;;2.47;2.27;;;10.60;99.90;;;;;;5097128;28;20727;-84
2022/10/27 04:48:54;;;;;;;2.37;2.17;;;10.70;99.90;;;;;;5102571;28;21262;-84
2022/10/27 04:51:22;;;;;;;3.70;2.07;;;10.60;99.90;;;;;;5102061;28;20608;-84
2022/10/27 04:53:50;;;;;;;3.97;2.07;;;10.60;99.90;;;;;;5105087;28;21445;-84
2022/10/27 04:56:17;;;;;;;2.40;2.20;;;;;;;;;;5093982;28;20672;-85
2022/10/27 04:58:44;;;;;;;2.10;1.80;;;10.60;99.90;;;;;;5103996;28;20624;-84
2022/10/27 05:01:12;;;;;;;3.10;2.80;;;10.60;99.90;;;;;;5088131;28;20666;-84
2022/10/27 05:03:39;;;;;;;2.63;2.30;;;10.60;99.90;;;;;;5091170;28;20625;-84
2022/10/27 05:06:07;;;;;;;4.07;2.73;;;10.60;99.90;;;;;;5091624;28;20658;-84
2022/10/27 05:08:35;;;;;;;1.97;1.87;;;10.70;99.90;;;;;;5090431;28;20652;-84
2022/10/27 05:11:02;;;;;;;4.50;2.30;;;10.80;99.90;;;;;;5092664;28;20608;-84
2022/10/27 05:13:29;;;;;;;3.67;3.33;;;10.90;99.90;;;;;;5091340;28;20704;-84
2022/10/27 05:15:59;;;;;;;3.40;2.43;;;10.90;99.90;;;;;;5093522;28;20613;-85
2022/10/27 05:18:26;;;;;;;2.50;1.93;;;10.90;99.90;;;;;;5110804;27;20623;-84
2022/10/27 05:20:53;;;;;;;3.50;2.87;;;10.90;99.90;;;;;;5101874;28;20619;-84
2022/10/27 05:23:20;;;;;;;3.57;2.80;;;11.00;99.90;;;;;;5110375;28;20693;-84
2022/10/27 05:25:51;;;;;;;3.23;2.40;;;10.90;99.90;;;;;;5110643;28;20608;-85
2022/10/27 05:28:18;;;;;;;3.67;3.03;;;10.90;99.90;;;;;;5109586;28;20608;-83
2022/10/27 05:30:45;;;;;;;2.38;2.17;;;10.90;99.90;;;;;;5091540;28;20659;-84
2022/10/27 05:33:13;;;;;;;1.60;1.50;;;10.90;99.90;;;;;;5094078;28;20318;-85
2022/10/27 05:35:40;;;;;;;5.88;2.70;;;10.90;99.90;;;;;;5090811;28;20824;-85
2022/10/27 05:38:07;;;;;;;4.53;2.67;;;;;;;;;;5089684;28;20748;-84
2022/10/27 05:40:34;;;;;;;2.97;2.67;;;11.00;99.90;;;;;;5090643;28;20198;-84
2022/10/27 05:43:03;;;;;;;4.80;2.87;;;11.00;99.90;;;;;;5091461;28;20664;-85
2022/10/27 05:45:30;;;;;;;2.40;2.17;;;11.00;99.90;;;;;;5098811;28;20612;-85
2022/10/27 05:47:58;;;;;;;3.60;2.70;;;11.10;99.90;;;;;;5110464;28;20710;-85
2022/10/27 05:50:26;;;;;;;3.90;3.03;;;11.20;99.90;;;;;;5111277;28;20616;-85
2022/10/27 05:52:53;;;;;;;2.83;2.30;;;11.20;99.90;;;;;;5110152;28;20608;-85
2022/10/27 05:55:20;;;;;;;2.40;2.20;;;11.30;99.90;;;;;;5097372;28;20617;-84
2022/10/27 05:57:53;;;;;;;3.80;3.40;;;11.20;99.90;;;;;;5090019;28;20596;-85
2022/10/27 06:00:21;;;;;;;2.10;1.90;;;11.20;99.90;;;;;;5108918;28;20633;-85
2022/10/27 06:02:48;;;;;;;4.70;3.20;;;11.30;99.90;;;;;;5110960;28;20639;-84
2022/10/27 06:05:15;;;;;;;2.70;2.50;;;11.20;99.90;;;;;;5089758;28;20731;-85
2022/10/27 06:07:42;;;;;;;4.13;2.40;;;11.30;99.90;;;;;;5089040;28;20627;-85
2022/10/27 06:10:09;;;;;;;4.37;3.50;;;11.10;99.90;;;;;;5089806;28;20685;-85
2022/10/27 06:12:36;;;;;;;6.63;3.33;;;11.20;99.90;;;;;;5089726;28;20643;-85
2022/10/27 06:15:03;;;;;;;2.50;2.30;;;11.30;99.90;;;;;;5090042;28;20670;-85
2022/10/27 06:17:32;;;;;;;2.50;2.30;;;11.30;99.90;;;;;;5104489;28;20615;-85
2022/10/27 06:19:59;;;;;;;2.60;2.23;;;11.20;99.90;;;;;;5108462;28;21041;-85
2022/10/27 06:22:25;;;;;;;4.03;3.60;;;11.20;99.90;;;;;;5090034;28;20616;-84
2022/10/27 06:24:52;;;;;;;2.53;2.33;;;11.10;99.90;;;;;;5089814;28;20723;-83
2022/10/27 06:27:19;;;;;;;4.37;2.77;;;11.00;99.90;;;;;;5089264;28;21007;-84
2022/10/27 06:29:46;;;;;;;3.53;2.70;;;11.20;99.90;;;;;;5104753;28;21260;-84
2022/10/27 06:32:13;;;;;;;2.57;2.37;;;11.10;99.90;;;;;;5110004;28;21002;-84
2022/10/27 06:34:42;;;;;;;2.17;1.97;;;11.00;99.90;;;;;;5100677;28;21098;-84
2022/10/27 06:37:08;;;;;;;1.40;1.40;;;11.00;99.90;;;;;;5109430;28;21248;-84
2022/10/27 06:39:35;;;;;;;2.10;2.00;;;11.00;99.90;;;;;;5110143;28;20714;-83
2022/10/27 06:42:02;;;;;;;3.00;2.70;;;11.00;99.90;;;;;;5109486;28;20644;-83
2022/10/27 06:44:29;;;;;;;2.77;2.50;;;11.00;99.90;;;;;;5110288;28;20691;-84
2022/10/27 06:46:56;;;;;;;2.70;2.50;;;11.00;99.90;;;;;;5109689;28;20623;-83
2022/10/27 06:49:22;;;;;;;2.50;2.20;;;11.10;99.90;;;;;;5108988;28;20635;-83
2022/10/27 06:51:51;;;;;;;4.30;2.90;;;10.80;99.90;;;;;;5109909;28;20611;-87
2022/10/27 06:54:18;;;;;;;3.67;3.40;;;11.00;99.90;;;;;;5105002;28;20690;-83
2022/10/27 06:56:44;;;;;;;4.73;3.23;;;11.10;99.90;;;;;;5088966;28;20608;-84
2022/10/27 06:59:11;;;;;;;4.93;3.77;;;11.20;99.90;;;;;;5098087;28;20620;-84
2022/10/27 07:01:38;;;;;;;4.67;4.20;;;11.30;99.90;;;;;;5109964;28;20611;-86
2022/10/27 07:04:05;;;;;;;6.40;4.70;;;11.40;99.90;;;;;;5098612;28;20659;-84
2022/10/27 07:06:32;;;;;;;4.90;4.50;;;11.40;99.90;;;;;;5088285;28;20659;-84
2022/10/27 07:09:01;;;;;;;4.13;3.73;;;11.40;99.90;;;;;;5088737;28;21177;-83
2022/10/27 07:11:28;;;;;;;4.50;4.10;;;11.40;99.90;;;;;;5089188;28;20629;-84
2022/10/27 07:13:55;;;;;;;7.27;4.43;;;11.50;99.90;;;;;;5092089;28;20671;-84
2022/10/27 07:16:22;;;;;;;5.40;3.20;;;12.10;99.90;;;;;;5110276;28;20723;-85
2022/10/27 07:18:49;;;;;;;4.30;3.80;;;11.70;99.90;;;;;;5110009;28;21156;-85
2022/10/27 07:21:16;;;;;;;7.03;4.20;;;11.80;99.90;;;;;;5099379;28;21256;-85
2022/10/27 07:23:43;;;;;;;3.93;3.63;;;11.90;99.90;;;;;;5089458;28;20621;-85
2022/10/27 07:26:11;;;;;;;3.40;3.10;;;12.00;99.90;;;;;;5088807;28;21476;-85
2022/10/27 07:28:38;;;;;;;3.37;2.87;;;12.00;99.90;;;;;;5095033;28;20612;-85
2022/10/27 07:31:05;;;;;;;4.20;3.17;;;12.30;99.90;;;;;;5109813;28;20917;-85
2022/10/27 07:33:32;;;;;;;4.00;2.90;;;12.20;99.90;;;;;;5109813;28;20627;-86
2022/10/27 07:35:59;;;;;;;2.77;2.57;;;12.30;99.90;;;;;;5111440;28;20616;-84
2022/10/27 07:38:26;;;;;;;3.30;3.00;;;12.40;99.90;;;;;;5111220;28;21031;-84
2022/10/27 07:40:53;;;;;;;5.70;4.77;;;12.40;99.90;;;;;;5110706;28;20631;-84
2022/10/27 07:43:21;;;;;;;3.57;3.27;;;12.50;99.90;;;;;;5096755;28;20605;-85
2022/10/27 07:45:48;;;;;;;4.60;2.60;;;12.50;99.90;;;;;;5102679;28;20723;-85
2022/10/27 07:48:16;;;;;;;5.00;3.37;;;12.70;99.90;;;;;;5112234;28;20961;-85
2022/10/27 07:50:43;;;;;;;3.07;2.87;;;12.70;99.90;;;;;;5111604;28;21237;-84
2022/10/27 07:53:10;;;;;;;3.20;2.60;;;12.90;99.90;;;;;;5110593;28;21035;-85
2022/10/27 07:55:38;;;;;;;3.27;2.97;;;13.00;99.90;;;;;;5111331;28;20860;-84
2022/10/27 07:58:07;;;;;;;3.13;2.83;;;13.20;99.90;;;;;;5110402;28;21035;-85
2022/10/27 08:00:37;;;;;;;5.60;1.90;;;13.20;99.90;;;;;;5091110;28;20613;-85
2022/10/27 08:03:05;;;;;;;3.40;3.00;;;13.40;99.90;;;;;;5093365;28;20604;-85
2022/10/27 08:05:33;;;;;;;5.27;3.17;;;13.50;99.90;;;;;;5091145;28;20674;-85
2022/10/27 08:08:02;;;;;;;3.40;3.20;;;14.20;99.90;;;;;;5091571;28;20714;-85
2022/10/27 08:10:30;;;;;;;5.73;4.80;;;14.10;99.90;;;;;;5103867;28;20989;-84
2022/10/27 08:12:57;;;;;;;4.23;3.13;;;13.90;99.90;;;;;;5111430;28;20620;-84
2022/10/27 08:15:25;;;;;;;4.87;3.00;;;14.00;99.90;;;;;;5111613;28;20648;-85
2022/10/27 08:17:55;;;;;;;3.77;3.47;;;14.00;99.90;;;;;;5111277;28;20715;-85
2022/10/27 08:20:23;;;;;;;3.30;2.63;;;14.10;99.90;;;;;;5108750;28;20675;-85
2022/10/27 08:22:55;;;;;;;4.07;2.53;;;14.20;99.90;;;;;;5092099;28;20685;-85
2022/10/27 08:25:23;;;;;;;1.97;1.87;;;14.30;99.90;;;;;;5092151;28;20617;-85
2022/10/27 08:27:50;;;;;;;2.83;2.63;;;14.50;99.90;;;;;;5089642;28;20623;-84
2022/10/27 08:30:17;;;;;;;3.20;2.90;;;14.60;99.90;;;;;;5109866;28;21020;-84
2022/10/27 08:32:43;;;;;;;4.03;2.60;;;14.70;99.90;;;;;;5110763;28;20611;-84
2022/10/27 08:35:12;;;;;;;1.63;1.53;;;14.80;99.90;;;;;;5111361;28;20651;-84
2022/10/27 08:37:42;;;;;;;2.83;2.27;;;14.90;99.90;;;;;;5114286;28;20618;-85
2022/10/27 08:40:10;;;;;;;2.10;1.93;;;14.90;99.90;;;;;;5114428;28;20635;-83
2022/10/27 08:42:49;;;;;;;3.53;2.63;;;15.00;99.90;;;;;;5105861;28;20709;-84
2022/10/27 08:45:21;;;;;;;2.53;1.97;;;15.10;99.90;;;;;;5101392;28;21246;-84
2022/10/27 08:47:48;;;;;;;2.30;1.90;;;15.30;99.90;;;;;;5114370;28;20639;-85
2022/10/27 08:50:19;;;;;;;1.40;1.30;;;15.50;99.90;;;;;;5112695;28;21721;-84
2022/10/27 08:52:50;;;;;;;2.40;1.97;;;15.50;99.90;;;;;;5113679;28;20664;-84
2022/10/27 08:55:23;;;;;;;2.57;2.37;;;15.60;99.90;;;;;;5112408;28;20662;-84
2022/10/27 08:57:57;;;;;;;1.50;1.40;;;15.80;99.90;;;;;;5112268;28;20659;-84
2022/10/27 09:00:24;;;;;;;2.00;1.57;;;15.90;99.90;;;;;;5113242;28;20620;-83
2022/10/27 09:03:05;;;;;;;2.17;1.93;;;15.90;99.90;;;;;;5113692;28;20668;-83
2022/10/27 09:05:42;;;;;;;4.33;1.60;;;15.90;99.90;;;;;;5093254;28;20621;-83
2022/10/27 09:08:21;;;;;;;1.60;1.50;;;16.30;99.90;;;;;;5092650;28;20673;-83
2022/10/27 09:10:57;;;;;;;3.20;1.53;;;16.00;99.90;;;;;;5091441;28;20944;-84
2022/10/27 09:13:42;;;;;;;1.50;1.40;;;16.10;99.90;;;;;;5092227;28;21014;-83
2022/10/27 09:16:14;;;;;;;1.60;1.50;;;16.30;99.90;;;;;;5095973;28;20663;-84
2022/10/27 09:18:45;;;;;;;1.77;1.67;;;16.30;99.90;;;;;;5112706;28;20616;-83
2022/10/27 09:21:19;;;;;;;1.83;1.20;;;16.30;99.90;;;;;;5102568;28;20624;-83
2022/10/27 09:23:50;;;;;;;1.60;1.03;;;16.40;99.90;;;;;;5098233;28;20611;-83
2022/10/27 09:26:20;;;;;;;1.67;1.33;;;16.40;99.90;;;;;;5113444;28;20608;-83
2022/10/27 09:28:51;;;;;;;1.80;1.60;;;16.50;99.90;;;;;;5113371;28;21044;-83
2022/10/27 09:31:22;;;;;;;1.63;1.53;;;16.60;99.90;;;;;;5113514;28;20612;-84
2022/10/27 09:33:54;;;;;;;1.90;1.70;;;16.70;99.90;;;;;;5105807;28;20621;-83
2022/10/27 09:36:23;;;;;;;1.40;1.27;;;16.60;99.90;;;;;;5092042;28;21173;-82
2022/10/27 09:38:50;;;;;;;1.60;1.30;;;16.60;99.90;;;;;;5092464;28;21189;-82
2022/10/27 09:41:17;;;;;;;2.60;1.67;;;16.70;99.90;;;;;;5091985;28;20732;-82
2022/10/27 09:43:44;;;;;;;2.90;1.50;;;16.80;99.90;;;;;;5091165;28;20701;-82
2022/10/27 09:46:20;;;;;;;2.53;1.57;;;16.80;99.90;;;;;;5105943;28;20666;-83
2022/10/27 09:48:47;;;;;;;1.63;1.43;;;;;;;;;;5110386;28;20640;-82
2022/10/27 09:51:20;;;;;;;1.20;1.10;;;16.70;99.90;;;;;;5112078;28;21141;-83
2022/10/27 09:53:51;;;;;;;1.10;1.00;;;16.90;99.90;;;;;;5111436;28;20628;-82
2022/10/27 09:56:24;;;;;;;1.10;1.00;;;16.90;99.90;;;;;;5112268;28;20759;-83
2022/10/27 09:58:57;;;;;;;5.70;1.60;;;16.90;99.90;;;;;;5112286;28;20647;-82
2022/10/27 10:01:26;;;;;;;3.07;1.13;;;16.90;99.90;;;;;;5113275;28;20626;-81
2022/10/27 10:04:05;;;;;;;2.30;2.20;;;17.00;99.90;;;;;;5103588;28;20645;-81
2022/10/27 10:06:36;;;;;;;2.00;1.10;;;17.10;99.90;;;;;;5090595;28;20659;-82
2022/10/27 10:09:28;;;;;;;2.10;1.90;;;17.10;99.90;;;;;;5090891;28;20624;-81
2022/10/27 10:12:21;;;;;;;1.37;1.27;;;17.10;99.90;;;;;;5102899;28;20731;-81
2022/10/27 10:14:48;;;;;;;1.20;1.10;;;17.20;99.90;;;;;;5110970;28;20663;-81
2022/10/27 10:17:26;;;;;;;1.70;1.60;;;17.10;99.90;;;;;;5110018;28;21199;-82
2022/10/27 10:19:54;;;;;;;2.63;1.10;;;17.20;99.90;;;;;;5110359;28;20619;-82
2022/10/27 10:22:25;;;;;;;1.10;1.00;;;17.30;99.90;;;;;;5090549;28;20709;-83
2022/10/27 10:24:54;;;;;;;2.30;1.73;;;17.30;99.90;;;;;;5090073;28;20617;-82
2022/10/27 10:27:28;;;;;;;1.27;1.20;;;17.40;99.90;;;;;;5090054;28;20895;-83
2022/10/27 10:29:56;;;;;;;1.20;1.00;;;17.50;99.90;;;;;;5106212;28;20628;-82
2022/10/27 10:32:25;;;;;;;1.13;0.70;;;17.70;99.90;;;;;;5111607;28;20600;-82
2022/10/27 10:34:53;;;;;;;1.50;1.40;;;17.60;99.90;;;;;;5110277;28;20643;-83
2022/10/27 10:37:32;;;;;;;2.17;1.37;;;17.70;99.90;;;;;;5110056;28;20646;-82
2022/10/27 10:40:26;;;;;;;1.33;1.13;;;17.70;99.90;;;;;;5110707;28;20612;-82
2022/10/27 10:43:05;;;;;;;0.90;0.83;;;17.70;99.90;;;;;;5098464;28;21182;-83
2022/10/27 10:45:35;;;;;;;2.60;1.47;;;17.70;99.90;;;;;;5108000;28;20732;-83
2022/10/27 10:48:06;;;;;;;1.00;1.00;;;17.80;99.90;;;;;;5108678;28;20649;-82
2022/10/27 10:50:44;;;;;;;1.13;1.03;;;17.80;99.40;;;;;;5110700;28;20626;-82
2022/10/27 10:53:22;;;;;;;1.40;1.30;;;17.90;98.90;;;;;;5109803;27;20620;-82
2022/10/27 10:55:51;;;;;;;1.43;0.73;;;17.90;99.20;;;;;;5109854;28;20716;-82
2022/10/27 10:58:20;;;;;;;1.30;1.20;;;17.90;99.90;;;;;;5108938;28;20719;-82
2022/10/27 11:01:01;;;;;;;1.30;1.20;;;17.90;98.90;;;;;;5110531;28;20604;-82
2022/10/27 11:03:31;;;;;;;5.03;1.20;;;18.10;99.00;;;;;;5104914;28;21170;-82
2022/10/27 11:06:02;;;;;;;1.73;1.43;;;18.20;98.70;;;;;;5089758;28;20725;-82
2022/10/27 11:08:41;;;;;;;1.13;1.10;;;18.20;98.50;;;;;;5088093;28;21379;-82
2022/10/27 11:11:16;;;;;;;1.20;0.90;;;18.30;97.70;;;;;;5088970;28;20696;-82
2022/10/27 11:13:49;;;;;;;1.30;1.20;;;18.50;98.40;;;;;;5088963;28;20693;-82
2022/10/27 11:16:16;;;;;;;1.00;0.90;;;18.50;97.10;;;;;;5093362;28;20671;-84
2022/10/27 11:18:47;;;;;;;1.80;1.37;;;18.70;96.60;;;;;;5109556;28;21027;-82
2022/10/27 11:21:21;;;;;;;2.57;1.20;;;18.70;96.90;;;;;;5095537;28;21230;-84
2022/10/27 11:23:50;;;;;;;1.47;1.00;;;18.60;97.50;;;;;;5109155;28;20645;-85
2022/10/27 11:26:22;;;;;;;1.30;1.13;;;18.60;97.40;;;;;;5099689;28;20640;-82
2022/10/27 11:28:56;;;;;;;1.57;1.33;;;18.70;97.30;;;;;;5108517;28;20740;-81
2022/10/27 11:31:29;;;;;;;1.23;1.00;;;18.80;98.00;;;;;;5108942;28;21180;-82
2022/10/27 11:34:03;;;;;;;1.53;1.03;;;18.80;97.50;;;;;;5109304;28;20654;-82
2022/10/27 11:36:37;;;;;;;5.13;1.50;;;18.80;96.70;;;;;;5108120;28;20651;-83
2022/10/27 11:39:06;;;;;;;1.10;0.90;;;19.00;97.30;;;;;;5091485;28;20982;-82
2022/10/27 11:41:40;;;;;;;2.07;1.30;;;18.90;97.90;;;;;;5088267;28;20720;-82
2022/10/27 11:44:18;;;;;;;3.40;1.80;;;18.90;98.60;;;;;;5090981;28;20655;-81
2022/10/27 11:46:52;;;;;;;1.20;1.10;;;19.00;97.50;;;;;;5108401;28;20714;-82
2022/10/27 11:49:29;;;;;;;1.90;1.73;;;19.10;98.10;;;;;;5109770;28;20611;-82
2022/10/27 11:52:02;;;;;;;4.30;1.30;;;19.20;98.70;;;;;;5108965;28;20688;-82
2022/10/27 11:54:31;;;;;;;2.20;1.90;;;19.10;98.70;;;;;;5107210;28;21207;-84
2022/10/27 11:57:10;;;;;;;1.30;1.20;;;19.10;98.90;;;;;;5107539;28;20666;-82
2022/10/27 11:59:50;;;;;;;0.80;0.80;;;19.10;99.10;;;;;;5107963;28;20688;-83
2022/10/27 12:02:52;;;;;;;1.53;1.20;;;19.20;98.30;;;;;;5108313;28;20633;-81
2022/10/27 12:05:23;;;;;;;1.40;1.30;;;19.30;97.10;;;;;;5108424;28;20742;-82
2022/10/27 12:07:58;;;;;;;2.50;1.97;;;19.40;97.30;;;;;;5107696;28;20644;-83
2022/10/27 12:10:33;;;;;;;1.80;1.30;;;19.60;96.40;;;;;;5108722;28;20662;-82
2022/10/27 12:13:04;;;;;;;2.30;1.33;;;19.60;96.70;;;;;;5107957;28;20705;-82
2022/10/27 12:15:41;;;;;;;1.13;0.93;;;19.70;96.50;;;;;;5103257;28;21026;-81
2022/10/27 12:18:18;;;;;;;2.03;1.70;;;19.70;96.40;;;;;;5107564;28;20599;-81
2022/10/27 12:20:52;;;;;;;2.47;1.20;;;19.80;96.20;;;;;;5101524;28;20636;-83
2022/10/27 12:23:24;;;;;;;1.53;1.30;;;19.80;96.20;;;;;;5088233;28;20624;-84
2022/10/27 12:25:59;;;;;;;1.10;1.00;;;19.90;96.50;;;;;;5088119;28;20712;-82
2022/10/27 12:28:29;;;;;;;1.47;1.20;;;19.90;96.10;;;;;;5092216;28;20623;-83
2022/10/27 12:31:01;;;;;;;3.33;1.67;;;20.00;96.20;;;;;;5109513;28;20612;-82
2022/10/27 12:33:34;;;;;;;1.50;1.40;;;19.90;96.50;;;;;;5109031;28;20615;-82
2022/10/27 12:36:07;;;;;;;1.20;1.10;;;19.90;96.70;;;;;;5106354;28;20674;-83
2022/10/27 12:38:42;;;;;;;0.83;0.83;;;20.00;96.40;;;;;;5092065;28;20715;-82
2022/10/27 12:41:16;;;;;;;1.53;1.43;;;20.00;96.50;;;;;;5108121;28;20718;-83
2022/10/27 12:43:51;;;;;;;1.20;1.10;;;19.90;96.70;;;;;;5091683;28;20612;-83
2022/10/27 12:46:32;;;;;;;1.40;1.23;;;20.10;96.00;;;;;;5103772;28;20615;-83
2022/10/27 12:49:09;;;;;;;3.17;1.90;;;20.20;96.10;;;;;;5101546;28;20783;-81
2022/10/27 12:51:46;;;;;;;1.20;1.10;;;20.00;96.40;;;;;;5102767;28;20611;-86
2022/10/27 12:54:28;;;;;;;1.07;1.00;;;20.10;96.50;;;;;;5109379;28;21315;-82
2022/10/27 12:57:05;;;;;;;2.30;1.50;;;20.00;96.60;;;;;;5107180;28;21122;-82
2022/10/27 12:59:50;;;;;;;1.40;1.30;;;20.00;97.00;;;;;;5108903;28;21184;-83
2022/10/27 13:02:19;;;;;;;1.87;1.00;;;20.00;97.40;;;;;;5107699;28;20636;-83
2022/10/27 13:05:19;;;;;;;2.60;1.10;;;20.00;96.50;;;;;;5107383;28;21041;-82